createdAt,value
2022-10-09T00:00:57.280Z,1.70
2022-10-09T00:04:00.095Z,2.08
2022-10-09T00:07:02.623Z,1.80
2022-10-09T00:10:05.268Z,1.50
2022-10-09T00:13:08.118Z,2.00
2022-10-09T00:16:10.801Z,1.95
2022-10-09T00:19:13.373Z,1.90
2022-10-09T00:22:15.821Z,1.88
2022-10-09T00:25:18.276Z,2.17
2022-10-09T00:28:21.213Z,2.10
2022-10-09T00:31:25.867Z,2.00
2022-10-09T00:34:29.021Z,1.70
2022-10-09T00:37:32.190Z,1.75
2022-10-09T00:40:35.046Z,1.83
2022-10-09T00:43:37.112Z,1.80
2022-10-09T00:46:40.136Z,2.00
2022-10-09T00:49:43.441Z,1.90
2022-10-09T00:52:46.242Z,1.90
2022-10-09T00:55:49.076Z,1.80
2022-10-09T00:58:51.895Z,2.10
2022-10-09T01:01:55.137Z,1.60
2022-10-09T01:04:57.979Z,1.85
2022-10-09T01:08:00.806Z,1.73
2022-10-09T01:11:02.967Z,1.88
2022-10-09T01:14:05.821Z,1.90
2022-10-09T01:17:08.176Z,1.83
2022-10-09T01:20:10.684Z,1.90
2022-10-09T01:23:12.858Z,1.83
2022-10-09T01:26:15.420Z,1.73
2022-10-09T01:29:17.525Z,1.80
2022-10-09T01:32:19.672Z,2.03
2022-10-09T01:35:22.137Z,2.00
2022-10-09T01:38:25.152Z,1.70
2022-10-09T01:41:27.598Z,1.92
2022-10-09T01:44:30.173Z,1.90
2022-10-09T01:47:33.086Z,1.95
2022-10-09T01:50:35.937Z,1.80
2022-10-09T01:53:38.413Z,1.60
2022-10-09T01:56:41.323Z,1.70
2022-10-09T01:59:43.811Z,1.77
2022-10-09T02:02:46.563Z,1.70
2022-10-09T02:05:49.569Z,1.70
2022-10-09T02:08:52.539Z,1.95
2022-10-09T02:11:55.360Z,1.48
2022-10-09T02:14:58.197Z,1.70
2022-10-09T02:18:02.900Z,1.60
2022-10-09T02:21:05.765Z,1.70
2022-10-09T02:24:07.832Z,1.50
2022-10-09T02:27:10.723Z,1.63
2022-10-09T02:30:13.500Z,1.83
2022-10-09T02:33:15.993Z,1.55
2022-10-09T02:36:19.102Z,1.60
2022-10-09T02:39:21.740Z,1.90
2022-10-09T02:42:24.328Z,1.63
2022-10-09T02:45:26.929Z,1.60
2022-10-09T02:48:29.366Z,1.70
2022-10-09T02:51:32.104Z,1.70
2022-10-09T02:54:34.870Z,1.88
2022-10-09T02:57:37.690Z,1.65
2022-10-09T03:00:40.604Z,1.58
2022-10-09T03:03:43.256Z,1.52
2022-10-09T03:06:45.977Z,1.50
2022-10-09T03:09:49.118Z,1.30
2022-10-09T03:12:52.269Z,1.67
2022-10-09T03:15:55.139Z,1.70
2022-10-09T03:18:57.692Z,1.63
2022-10-09T03:22:00.805Z,1.48
2022-10-09T03:25:03.257Z,1.40
2022-10-09T03:28:06.440Z,1.30
2022-10-09T03:31:09.526Z,1.40
2022-10-09T03:34:12.879Z,1.40
2022-10-09T03:37:15.799Z,1.60
2022-10-09T03:40:18.689Z,1.50
2022-10-09T03:43:21.239Z,1.70
2022-10-09T03:46:23.790Z,1.42
2022-10-09T03:49:26.580Z,1.30
2022-10-09T03:52:28.965Z,1.50
2022-10-09T03:55:31.095Z,1.50
2022-10-09T03:58:33.641Z,1.50
2022-10-09T04:01:35.787Z,1.38
2022-10-09T04:04:37.685Z,1.50
2022-10-09T04:07:40.642Z,1.50
2022-10-09T04:10:43.457Z,1.40
2022-10-09T04:13:46.406Z,1.45
2022-10-09T04:16:49.050Z,1.55
2022-10-09T04:19:51.445Z,1.50
2022-10-09T04:22:54.328Z,1.42
2022-10-09T04:25:57.473Z,1.35
2022-10-09T04:29:00.840Z,1.30
2022-10-09T04:32:03.780Z,1.70
2022-10-09T04:35:06.789Z,1.40
2022-10-09T04:38:09.434Z,1.73
2022-10-09T04:41:12.630Z,1.20
2022-10-09T04:44:15.439Z,1.40
2022-10-09T04:47:18.456Z,1.60
2022-10-09T04:50:21.347Z,1.30
2022-10-09T04:53:32.638Z,1.30
2022-10-09T04:56:35.212Z,1.30
2022-10-09T04:59:37.527Z,1.30
2022-10-09T05:02:40.018Z,1.42
2022-10-09T05:05:42.618Z,1.20
2022-10-09T05:08:44.728Z,1.23
2022-10-09T05:11:47.000Z,1.20
2022-10-09T05:14:49.952Z,1.30
2022-10-09T05:17:52.357Z,1.20
2022-10-09T05:20:54.482Z,1.30
2022-10-09T05:23:56.574Z,1.27
2022-10-09T05:26:59.168Z,1.30
2022-10-09T05:30:01.650Z,1.40
2022-10-09T05:33:04.096Z,1.17
2022-10-09T05:36:06.913Z,1.40
2022-10-09T05:39:09.789Z,1.50
2022-10-09T05:42:12.445Z,1.50
2022-10-09T05:45:15.611Z,1.35
2022-10-09T05:48:18.514Z,1.40
2022-10-09T05:51:20.713Z,1.40
2022-10-09T05:54:23.800Z,1.33
2022-10-09T05:57:26.901Z,1.77
2022-10-09T06:00:29.766Z,1.30
2022-10-09T06:03:32.663Z,1.40
2022-10-09T06:06:35.470Z,1.60
2022-10-09T06:09:38.059Z,1.40
2022-10-09T06:12:40.177Z,1.23
2022-10-09T06:15:43.212Z,1.20
2022-10-09T06:18:49.069Z,1.40
2022-10-09T06:21:52.546Z,1.50
2022-10-09T06:24:55.377Z,1.40
2022-10-09T06:27:57.962Z,1.40
2022-10-09T06:31:00.858Z,1.45
2022-10-09T06:34:04.025Z,1.40
2022-10-09T06:37:07.168Z,1.33
2022-10-09T06:40:09.878Z,1.10
2022-10-09T06:43:12.291Z,1.20
2022-10-09T06:46:14.913Z,1.52
2022-10-09T06:49:17.184Z,1.20
2022-10-09T06:52:19.643Z,1.35
2022-10-09T06:55:26.404Z,1.45
2022-10-09T06:58:31.264Z,1.20
2022-10-09T07:01:34.937Z,1.10
2022-10-09T07:04:38.277Z,1.30
2022-10-09T07:07:40.440Z,1.20
2022-10-09T07:10:43.001Z,1.35
2022-10-09T07:13:45.621Z,1.38
2022-10-09T07:16:48.248Z,1.20
2022-10-09T07:19:50.846Z,1.13
2022-10-09T07:22:53.393Z,1.08
2022-10-09T07:25:55.836Z,1.15
2022-10-09T07:28:58.497Z,1.33
2022-10-09T07:32:01.151Z,1.50
2022-10-09T07:35:04.057Z,1.30
2022-10-09T07:38:06.457Z,1.30
2022-10-09T07:41:08.901Z,1.23
2022-10-09T07:44:11.721Z,1.30
2022-10-09T07:47:14.552Z,1.40
2022-10-09T07:50:17.246Z,1.40
2022-10-09T07:53:20.214Z,1.40
2022-10-09T07:56:23.039Z,1.40
2022-10-09T07:59:25.677Z,1.50
2022-10-09T08:02:28.214Z,1.25
2022-10-09T08:05:30.373Z,1.30
2022-10-09T08:08:33.014Z,1.38
2022-10-09T08:11:35.544Z,1.30
2022-10-09T08:14:38.130Z,1.30
2022-10-09T08:17:40.301Z,1.30
2022-10-09T08:20:42.939Z,1.20
2022-10-09T08:23:45.592Z,1.20
2022-10-09T08:26:48.041Z,1.38
2022-10-09T08:29:50.487Z,1.27
2022-10-09T08:32:53.430Z,1.20
2022-10-09T08:35:56.225Z,1.20
2022-10-09T08:38:58.338Z,1.30
2022-10-09T08:42:01.020Z,1.30
2022-10-09T08:45:04.345Z,1.38
2022-10-09T08:48:06.898Z,1.27
2022-10-09T08:51:09.564Z,1.30
2022-10-09T08:54:11.727Z,1.10
2022-10-09T08:57:14.856Z,1.30
2022-10-09T09:00:18.613Z,1.10
2022-10-09T09:03:21.925Z,1.25
2022-10-09T09:06:25.145Z,1.40
2022-10-09T09:09:28.435Z,1.23
2022-10-09T09:12:30.618Z,1.30
2022-10-09T09:15:33.126Z,1.48
2022-10-09T09:18:39.527Z,1.20
2022-10-09T09:21:44.681Z,1.33
2022-10-09T09:24:47.066Z,1.25
2022-10-09T09:27:49.554Z,1.30
2022-10-09T09:30:52.081Z,1.05
2022-10-09T09:33:54.986Z,1.15
2022-10-09T09:36:57.586Z,1.20
2022-10-09T09:43:22.428Z,1.10
2022-10-09T09:46:24.603Z,1.23
2022-10-09T09:49:27.526Z,1.27
2022-10-09T09:52:29.898Z,1.20
2022-10-09T09:55:32.482Z,1.25
2022-10-09T09:58:35.071Z,1.38
2022-10-09T10:01:37.547Z,1.20
2022-10-09T10:04:43.270Z,1.10
2022-10-09T10:07:45.891Z,1.20
2022-10-09T10:10:48.223Z,1.30
2022-10-09T10:13:51.459Z,1.50
2022-10-09T10:16:54.299Z,1.33
2022-10-09T10:19:57.129Z,1.20
2022-10-09T10:22:59.959Z,1.13
2022-10-09T10:26:03.101Z,1.30
2022-10-09T10:29:06.269Z,1.38
2022-10-09T10:32:09.164Z,1.33
2022-10-09T10:35:11.368Z,1.35
2022-10-09T10:38:14.337Z,1.10
2022-10-09T10:41:17.118Z,1.40
2022-10-09T10:44:20.092Z,1.20
2022-10-09T10:47:22.749Z,1.10
2022-10-09T10:50:25.397Z,1.25
2022-10-09T10:53:28.040Z,1.20
2022-10-09T10:56:30.681Z,1.30
2022-10-09T10:59:32.848Z,1.20
2022-10-09T11:02:39.454Z,1.30
2022-10-09T11:05:44.792Z,1.13
2022-10-09T11:08:47.604Z,1.30
2022-10-09T11:11:50.497Z,1.40
2022-10-09T11:14:53.160Z,1.30
2022-10-09T11:17:55.970Z,1.27
2022-10-09T11:20:58.824Z,1.20
2022-10-09T11:24:01.439Z,1.38
2022-10-09T11:27:04.486Z,1.40
2022-10-09T11:30:11.136Z,1.40
2022-10-09T11:33:14.367Z,1.45
2022-10-09T11:36:18.088Z,1.52
2022-10-09T11:39:22.019Z,1.42
2022-10-09T11:42:25.009Z,1.58
2022-10-09T11:45:27.888Z,1.20
2022-10-09T11:48:30.722Z,1.20
2022-10-09T11:51:33.318Z,1.30
2022-10-09T11:54:36.153Z,1.30
2022-10-09T11:57:39.064Z,1.42
2022-10-09T12:00:41.583Z,1.35
2022-10-09T12:03:44.703Z,1.25
2022-10-09T12:06:47.417Z,1.33
2022-10-09T12:09:50.564Z,1.20
2022-10-09T12:12:53.614Z,1.50
2022-10-09T12:15:56.556Z,1.90
2022-10-09T12:18:58.751Z,1.80
2022-10-09T12:22:00.931Z,1.25
2022-10-09T12:25:03.408Z,1.33
2022-10-09T12:28:06.305Z,1.40
2022-10-09T12:31:08.819Z,1.30
2022-10-09T12:34:11.218Z,1.30
2022-10-09T12:37:14.650Z,1.30
2022-10-09T12:40:17.876Z,1.15
2022-10-09T12:43:21.508Z,1.27
2022-10-09T12:46:24.072Z,1.27
2022-10-09T12:49:26.338Z,1.00
2022-10-09T12:52:28.472Z,1.25
2022-10-09T12:55:30.723Z,1.10
2022-10-09T12:58:33.211Z,1.00
2022-10-09T13:01:35.825Z,1.25
2022-10-09T13:04:38.885Z,0.93
2022-10-09T13:07:45.240Z,1.20
2022-10-09T13:10:50.343Z,1.08
2022-10-09T13:13:53.318Z,0.95
2022-10-09T13:16:56.609Z,1.05
2022-10-09T13:19:59.835Z,1.20
2022-10-09T13:23:02.211Z,1.00
2022-10-09T13:26:04.738Z,1.00
2022-10-09T13:29:07.515Z,1.10
2022-10-09T13:32:10.560Z,1.20
2022-10-09T13:35:13.762Z,1.00
2022-10-09T13:38:16.240Z,1.08
2022-10-09T13:41:18.788Z,0.80
2022-10-09T13:44:21.356Z,1.00
2022-10-09T13:47:24.766Z,1.00
2022-10-09T13:50:27.523Z,1.10
2022-10-09T13:53:30.087Z,0.85
2022-10-09T13:56:32.974Z,0.80
2022-10-09T13:59:35.939Z,0.90
2022-10-09T14:02:39.066Z,0.90
2022-10-09T14:05:42.143Z,0.82
2022-10-09T14:08:44.967Z,0.90
2022-10-09T14:11:47.128Z,1.02
2022-10-09T14:14:49.598Z,0.77
2022-10-09T14:17:52.175Z,0.93
2022-10-09T14:20:54.747Z,0.80
2022-10-09T14:23:57.073Z,1.00
2022-10-09T14:26:59.374Z,0.90
2022-10-09T14:30:02.201Z,0.80
2022-10-09T14:33:05.131Z,0.85
2022-10-09T14:36:07.902Z,0.80
2022-10-09T14:39:11.208Z,0.80
2022-10-09T14:42:14.150Z,1.10
2022-10-09T14:45:17.338Z,0.90
2022-10-09T14:48:19.758Z,0.80
2022-10-09T14:51:22.326Z,0.80
2022-10-09T14:54:24.897Z,0.90
2022-10-09T14:57:31.643Z,0.85
2022-10-09T15:00:37.758Z,0.85
2022-10-09T15:03:40.220Z,1.08
2022-10-09T15:06:42.745Z,0.90
2022-10-09T15:09:45.565Z,0.90
2022-10-09T15:12:48.414Z,1.27
2022-10-09T15:15:50.950Z,0.70
2022-10-09T15:18:53.670Z,0.90
2022-10-09T15:21:56.932Z,0.75
2022-10-09T15:24:59.769Z,0.90
2022-10-09T15:28:02.267Z,0.75
2022-10-09T15:31:04.432Z,0.93
2022-10-09T15:34:07.404Z,1.17
2022-10-09T15:37:10.290Z,0.82
2022-10-09T15:40:12.472Z,0.80
2022-10-09T15:43:15.424Z,0.70
2022-10-09T15:46:18.337Z,1.05
2022-10-09T15:49:20.928Z,0.70
2022-10-09T15:52:23.464Z,0.90
2022-10-09T15:55:26.894Z,0.80
2022-10-09T15:58:29.468Z,0.90
2022-10-09T16:01:32.050Z,1.08
2022-10-09T16:04:34.602Z,0.70
2022-10-09T16:07:37.098Z,0.65
2022-10-09T16:10:40.080Z,0.70
2022-10-09T16:13:43.811Z,0.85
2022-10-09T16:16:46.419Z,0.52
2022-10-09T16:19:48.953Z,0.80
2022-10-09T16:22:52.059Z,0.80
2022-10-09T16:25:54.778Z,0.93
2022-10-09T16:28:57.664Z,0.85
2022-10-09T16:31:59.932Z,0.80
2022-10-09T16:35:03.541Z,0.73
2022-10-09T16:38:05.871Z,0.90
2022-10-09T16:41:07.998Z,0.80
2022-10-09T16:44:10.632Z,0.77
2022-10-09T16:47:13.199Z,0.90
2022-10-09T16:50:16.603Z,0.80
2022-10-09T16:53:19.235Z,0.90
2022-10-09T16:56:21.381Z,0.80
2022-10-09T16:59:24.246Z,1.00
2022-10-09T17:02:27.025Z,0.82
2022-10-09T17:05:29.593Z,0.80
2022-10-09T17:08:32.146Z,0.82
2022-10-09T17:11:35.181Z,0.90
2022-10-09T17:14:38.537Z,0.93
2022-10-09T17:17:40.758Z,0.63
2022-10-09T17:20:43.672Z,0.98
2022-10-09T17:23:46.848Z,1.10
2022-10-09T17:26:49.749Z,0.80
2022-10-09T17:29:52.153Z,0.80
2022-10-09T17:32:54.977Z,1.08
2022-10-09T17:35:57.553Z,0.70
2022-10-09T17:39:00.086Z,0.90
2022-10-09T17:42:03.196Z,0.98
2022-10-09T17:45:06.062Z,1.00
2022-10-09T17:48:08.676Z,0.90
2022-10-09T17:51:11.621Z,0.90
2022-10-09T17:54:14.738Z,0.95
2022-10-09T17:57:17.436Z,0.85
2022-10-09T18:00:21.906Z,0.88
2022-10-09T18:03:24.363Z,1.00
2022-10-09T18:06:27.586Z,1.00
2022-10-09T18:09:29.968Z,0.80
2022-10-09T18:12:32.896Z,0.75
2022-10-09T18:15:35.306Z,0.90
2022-10-09T18:18:38.213Z,1.00
2022-10-09T18:21:41.306Z,0.80
2022-10-09T18:24:43.690Z,0.90
2022-10-09T18:27:46.105Z,0.95
2022-10-09T18:30:49.108Z,0.90
2022-10-09T18:33:51.838Z,0.88
2022-10-09T18:36:55.062Z,0.80
2022-10-09T18:39:58.243Z,0.95
2022-10-09T18:43:01.254Z,1.00
2022-10-09T18:46:04.356Z,0.80
2022-10-09T18:49:09.296Z,0.85
2022-10-09T18:52:12.628Z,1.00
2022-10-09T18:55:15.047Z,1.00
2022-10-09T18:58:17.710Z,1.00
2022-10-09T19:01:20.713Z,0.90
2022-10-09T19:04:23.863Z,1.10
2022-10-09T19:07:27.082Z,0.90
2022-10-09T19:10:30.309Z,1.10
2022-10-09T19:13:33.460Z,0.95
2022-10-09T19:16:36.628Z,1.05
2022-10-09T19:19:39.400Z,1.00
2022-10-09T19:22:41.934Z,1.00
2022-10-09T19:25:44.604Z,0.80
2022-10-09T19:28:46.753Z,1.02
2022-10-09T19:31:49.322Z,1.00
2022-10-09T19:34:52.338Z,0.90
2022-10-09T19:37:55.453Z,1.00
2022-10-09T19:40:57.894Z,1.20
2022-10-09T19:44:00.573Z,1.05
2022-10-09T19:47:03.104Z,0.82
2022-10-09T19:50:05.928Z,1.00
2022-10-09T19:53:08.468Z,1.33
2022-10-09T19:56:10.980Z,1.20
2022-10-09T19:59:13.839Z,1.13
2022-10-09T20:02:16.023Z,1.13
2022-10-09T20:05:18.714Z,1.15
2022-10-09T20:08:21.052Z,1.20
2022-10-09T20:11:23.517Z,1.20
2022-10-09T20:14:26.616Z,1.17
2022-10-09T20:17:29.751Z,1.10
2022-10-09T20:20:32.884Z,1.23
2022-10-09T20:23:36.069Z,1.33
2022-10-09T20:26:42.977Z,1.25
2022-10-09T20:29:46.023Z,1.20
2022-10-09T20:32:49.039Z,1.10
2022-10-09T20:35:52.087Z,1.13
2022-10-09T20:38:55.274Z,1.40
2022-10-09T20:41:58.392Z,1.30
2022-10-09T20:45:01.205Z,1.20
2022-10-09T20:48:03.688Z,1.25
2022-10-09T20:51:06.580Z,1.30
2022-10-09T20:54:09.204Z,1.30
2022-10-09T20:57:11.389Z,1.50
2022-10-09T21:00:14.376Z,1.30
2022-10-09T21:03:20.156Z,1.30
2022-10-09T21:06:22.506Z,1.25
2022-10-09T21:09:27.517Z,1.40
2022-10-09T21:12:33.233Z,1.50
2022-10-09T21:15:39.198Z,1.23
2022-10-09T21:18:43.893Z,1.20
2022-10-09T21:21:50.856Z,1.48
2022-10-09T21:24:53.987Z,1.50
2022-10-09T21:27:56.816Z,1.50
2022-10-09T21:30:59.365Z,1.10
2022-10-09T21:34:01.925Z,1.52
2022-10-09T21:40:28.356Z,1.30
2022-10-09T21:43:31.482Z,1.27
2022-10-09T21:46:33.904Z,1.40
2022-10-09T21:49:36.402Z,1.30
2022-10-09T21:52:38.502Z,1.50
2022-10-09T21:55:41.379Z,1.48
2022-10-09T21:58:48.757Z,1.23
2022-10-09T22:01:51.712Z,1.40
2022-10-09T22:04:54.328Z,1.30
2022-10-09T22:07:56.908Z,1.38
2022-10-09T22:10:59.806Z,1.08
2022-10-09T22:14:02.451Z,1.30
2022-10-09T22:17:05.084Z,1.55
2022-10-09T22:20:07.779Z,1.30
2022-10-09T22:23:10.527Z,1.50
2022-10-09T22:26:13.301Z,1.33
2022-10-09T22:29:16.171Z,1.30
2022-10-09T22:32:18.605Z,1.38
2022-10-09T22:35:21.208Z,1.30
2022-10-09T22:38:23.784Z,1.20
2022-10-09T22:41:25.924Z,1.40
2022-10-09T22:44:28.102Z,1.45
2022-10-09T22:47:30.216Z,1.20
2022-10-09T22:50:33.120Z,1.35
2022-10-09T22:53:36.179Z,1.27
2022-10-09T22:56:38.589Z,1.30
2022-10-09T22:59:41.246Z,1.25
2022-10-09T23:02:43.783Z,1.30
2022-10-09T23:05:46.676Z,1.30
2022-10-09T23:08:49.865Z,1.58
2022-10-09T23:11:52.633Z,1.33
2022-10-09T23:14:55.805Z,1.40
2022-10-09T23:17:58.741Z,1.33
2022-10-09T23:21:01.339Z,1.20
2022-10-09T23:24:03.922Z,1.30
2022-10-09T23:27:06.747Z,1.40
2022-10-09T23:30:09.579Z,1.30
2022-10-09T23:33:12.509Z,1.42
2022-10-09T23:36:14.903Z,1.40
2022-10-09T23:39:17.023Z,1.20
2022-10-09T23:42:18.933Z,1.20
2022-10-09T23:45:21.821Z,1.40
2022-10-09T23:48:24.888Z,1.40
2022-10-09T23:51:27.762Z,1.30
2022-10-09T23:54:30.590Z,1.48
2022-10-09T23:57:33.662Z,1.63
